Time;durP1;ratioP1;P1;durP2;ratioP2;P2;SDS_P1;SDS_P2;PMS_P1;PMS_P2;Temp;Humidity;BMP_temperature;BMP_pressure;BME280_temperature;BME280_humidity;BME280_pressure;Samples;Min_cycle;Max_cycle;Signal;HPM_P1;HPM_P2
2022/09/19 00:01:10;;;;;;;0.63;0.40;;;;;;;12.91;68.37;100590.91;5101953;28;20267;-65
2022/09/19 00:03:38;;;;;;;0.87;0.10;;;;;;;12.93;68.09;100586.25;5104976;28;21032;-66
2022/09/19 00:06:07;;;;;;;0.77;0.20;;;;;;;12.92;68.10;100586.44;5101943;27;20215;-66
2022/09/19 00:08:34;;;;;;;3.10;0.40;;;;;;;12.89;68.04;100590.25;5102231;27;20210;-65
2022/09/19 00:11:05;;;;;;;0.90;0.30;;;;;;;12.94;67.66;100593.25;5102958;27;20859;-65
2022/09/19 00:13:35;;;;;;;3.53;0.30;;;;;;;12.98;67.31;100594.59;5103419;28;20208;-65
2022/09/19 00:16:03;;;;;;;0.57;0.30;;;;;;;12.94;67.24;100595.91;5103091;28;20628;-65
2022/09/19 00:18:31;;;;;;;1.13;0.27;;;;;;;12.98;67.43;100604.41;5101142;27;20873;-65
2022/09/19 00:21:00;;;;;;;1.40;0.40;;;;;;;12.97;67.60;100600.91;5103195;27;20612;-65
2022/09/19 00:26:17;;;;;;;1.93;0.70;;;;;;;12.94;67.59;100598.56;5100635;28;20203;-65
2022/09/19 00:28:47;;;;;;;2.10;0.20;;;;;;;12.93;66.86;100601.41;5101453;28;20213;-65
2022/09/19 00:31:17;;;;;;;1.80;0.33;;;;;;;12.86;67.23;100601.19;5103774;28;20202;-65
2022/09/19 00:33:48;;;;;;;2.33;0.30;;;;;;;12.92;66.92;100602.41;5102599;27;20222;-65
2022/09/19 00:36:17;;;;;;;0.80;0.27;;;;;;;12.89;66.80;100598.22;5099728;28;20783;-65
2022/09/19 00:38:45;;;;;;;1.90;0.20;;;;;;;12.87;67.18;100602.03;5095395;28;20206;-65
2022/09/19 00:41:16;;;;;;;4.00;0.30;;;;;;;12.87;67.17;100608.19;5094215;28;20207;-65
2022/09/19 00:43:50;;;;;;;3.50;0.43;;;;;;;12.83;67.16;100609.50;5085196;28;20254;-66
2022/09/19 00:46:19;;;;;;;1.00;0.30;;;;;;;12.87;67.18;100612.66;5105772;27;21012;-65
2022/09/19 00:48:51;;;;;;;4.63;0.40;;;;;;;12.76;66.84;100616.44;5102568;27;20278;-65
2022/09/19 00:51:31;;;;;;;1.70;0.30;;;;;;;12.74;66.76;100613.13;5096034;28;20211;-65
2022/09/19 00:54:05;;;;;;;2.87;0.30;;;;;;;12.72;66.96;100621.25;5098751;28;20201;-65
2022/09/19 00:56:35;;;;;;;2.07;0.40;;;;;;;12.74;67.35;100619.28;5099371;28;20208;-66
2022/09/19 00:59:04;;;;;;;2.90;0.30;;;;;;;12.74;67.20;100613.97;5099435;28;20255;-64
2022/09/19 01:01:31;;;;;;;2.53;0.47;;;;;;;12.80;67.46;100618.63;5101378;28;20209;-64
2022/09/19 01:04:01;;;;;;;2.53;0.40;;;;;;;12.81;66.75;100619.47;5101737;28;20956;-64
2022/09/19 01:06:44;;;;;;;6.20;0.37;;;;;;;12.86;66.69;100630.47;5098904;28;20208;-64
2022/09/19 01:09:29;;;;;;;0.60;0.30;;;;;;;12.86;66.75;100626.97;5097935;28;20271;-64
2022/09/19 01:12:12;;;;;;;2.40;0.37;;;;;;;12.84;66.79;100619.13;5097395;28;20209;-64
2022/09/19 01:15:09;;;;;;;8.40;0.67;;;;;;;12.83;66.49;100625.47;5100056;28;20246;-64
2022/09/19 01:17:45;;;;;;;2.70;0.40;;;;;;;12.85;66.40;100631.44;5099045;28;20210;-64
2022/09/19 01:20:48;;;;;;;3.80;0.57;;;;;;;12.89;66.44;100624.84;5098406;28;20206;-64
2022/09/19 01:23:32;;;;;;;2.27;0.60;;;;;;;12.87;66.44;100624.16;5099208;28;20287;-64
2022/09/19 01:26:12;;;;;;;2.80;0.60;;;;;;;12.87;66.67;100626.81;5101342;28;20194;-64
2022/09/19 01:28:47;;;;;;;3.23;1.43;;;;;;;12.88;66.69;100631.16;5098234;28;20215;-64
2022/09/19 01:31:21;;;;;;;5.63;0.67;;;;;;;12.85;67.08;100631.44;5096456;28;20198;-64
2022/09/19 01:34:02;;;;;;;1.50;0.27;;;;;;;12.86;66.59;100643.78;5098074;28;20226;-64
2022/09/19 01:36:35;;;;;;;4.87;0.50;;;;;;;12.86;66.82;100643.78;5106663;27;20701;-64
2022/09/19 01:39:05;;;;;;;3.93;0.57;;;;;;;12.86;66.84;100649.09;5122091;27;20296;-64
2022/09/19 01:41:33;;;;;;;3.50;0.87;;;;;;;12.88;66.84;100640.97;5117174;27;20206;-64
2022/09/19 01:44:05;;;;;;;2.60;0.30;;;;;;;12.94;66.37;100641.16;5121805;27;20254;-64
2022/09/19 01:46:45;;;;;;;2.47;0.50;;;;;;;12.94;66.59;100643.81;5119958;27;20217;-64
2022/09/19 01:49:21;;;;;;;4.27;0.63;;;;;;;12.93;66.10;100636.81;5119421;27;20312;-64
2022/09/19 01:51:56;;;;;;;6.57;0.97;;;;;;;12.93;66.39;100654.63;5120757;27;20206;-64
2022/09/19 01:54:38;;;;;;;5.37;0.80;;;;;;;12.91;66.66;100646.81;5117597;27;20202;-64
2022/09/19 01:57:20;;;;;;;3.80;0.50;;;;;;;12.91;66.53;100657.47;5114713;27;20215;-64
2022/09/19 02:00:02;;;;;;;5.57;0.57;;;;;;;12.92;66.44;100655.63;5116884;27;20782;-64
2022/09/19 02:02:37;;;;;;;2.47;0.50;;;;;;;12.96;66.34;100663.13;5121204;27;20213;-64
2022/09/19 02:05:08;;;;;;;4.20;0.60;;;;;;;12.95;66.21;100657.94;5121196;27;20750;-64
2022/09/19 02:07:44;;;;;;;3.90;0.80;;;;;;;12.90;66.03;100670.91;5119552;27;20209;-64
2022/09/19 02:10:20;;;;;;;2.43;0.40;;;;;;;12.86;66.32;100672.22;5120003;27;20226;-64
2022/09/19 02:12:52;;;;;;;5.73;0.67;;;;;;;12.89;66.58;100675.41;5121798;27;20211;-64
2022/09/19 02:15:28;;;;;;;9.40;0.97;;;;;;;12.92;66.77;100679.59;5120717;27;20587;-64
2022/09/19 02:18:02;;;;;;;5.17;0.80;;;;;;;12.92;66.66;100676.91;5123935;27;20259;-64
2022/09/19 02:20:32;;;;;;;6.07;0.83;;;;;;;12.95;66.32;100680.09;5121914;27;20254;-64
2022/09/19 02:23:08;;;;;;;3.43;0.63;;;;;;;12.94;66.56;100678.41;5122643;27;20213;-64
2022/09/19 02:25:36;;;;;;;5.33;0.73;;;;;;;12.95;66.29;100677.41;5124807;27;20206;-64
2022/09/19 02:28:08;;;;;;;4.13;0.60;;;;;;;12.98;66.38;100682.44;5122191;27;20232;-64
2022/09/19 02:30:39;;;;;;;5.53;0.90;;;;;;;13.00;66.78;100679.63;5124198;27;20207;-64
2022/09/19 02:33:07;;;;;;;5.37;0.97;;;;;;;13.03;66.57;100682.78;5125948;27;20711;-64
2022/09/19 02:35:43;;;;;;;7.60;1.00;;;;;;;13.04;66.76;100679.13;5120850;27;20197;-65
2022/09/19 02:38:17;;;;;;;5.87;1.23;;;;;;;13.04;66.46;100681.78;5101644;28;20205;-65
2022/09/19 02:40:51;;;;;;;6.33;1.10;;;;;;;13.10;66.28;100689.16;5103130;28;20209;-65
2022/09/19 02:43:29;;;;;;;3.47;0.70;;;;;;;13.05;66.25;100678.13;5101465;28;20278;-65
2022/09/19 02:46:06;;;;;;;8.23;1.00;;;;;;;13.05;66.08;100683.47;5104515;28;20229;-65
2022/09/19 02:48:46;;;;;;;4.97;0.70;;;;;;;13.07;66.54;100697.47;5104513;28;20214;-65
2022/09/19 02:51:19;;;;;;;6.43;0.90;;;;;;;13.09;66.45;100692.81;5105141;28;20209;-65
2022/09/19 02:53:50;;;;;;;8.10;1.60;;;;;;;13.08;66.70;100696.47;5100808;28;20268;-65
2022/09/19 02:56:21;;;;;;;4.60;0.77;;;;;;;13.06;66.98;100698.44;5103666;28;20723;-65
2022/09/19 02:58:53;;;;;;;5.43;0.60;;;;;;;13.08;66.61;100691.16;5100535;28;20215;-65
2022/09/19 03:01:26;;;;;;;4.47;0.90;;;;;;;13.10;66.46;100694.50;5086451;28;20200;-65
2022/09/19 03:04:16;;;;;;;3.93;0.80;;;;;;;13.09;66.46;100695.47;5097327;28;20215;-65
2022/09/19 03:06:52;;;;;;;5.43;0.73;;;;;;;13.07;66.49;100694.81;5103382;28;20679;-65
2022/09/19 03:09:23;;;;;;;9.53;0.93;;;;;;;13.06;66.73;100693.13;5102115;28;22300;-65
2022/09/19 03:11:57;;;;;;;3.80;1.00;;;;;;;13.04;66.95;100697.75;5101773;28;20751;-65
2022/09/19 03:14:25;;;;;;;7.47;0.87;;;;;;;13.06;66.37;100706.44;5103890;28;20687;-65
2022/09/19 03:16:57;;;;;;;5.53;0.70;;;;;;;13.03;66.65;100698.75;5104731;28;20667;-65
2022/09/19 03:19:25;;;;;;;8.57;1.03;;;;;;;13.05;66.73;100709.25;5105230;28;20335;-65
2022/09/19 03:21:54;;;;;;;6.77;0.70;;;;;;;13.04;66.58;100713.75;5107296;28;20207;-65
2022/09/19 03:24:22;;;;;;;8.17;1.07;;;;;;;13.01;66.73;100710.56;5108619;28;20212;-65
2022/09/19 03:26:50;;;;;;;6.83;1.03;;;;;;;13.00;66.99;100712.41;5104233;28;20319;-65
2022/09/19 03:29:18;;;;;;;7.17;1.10;;;;;;;13.00;66.77;100715.06;5106667;28;20273;-64
2022/09/19 03:31:46;;;;;;;8.37;0.90;;;;;;;13.00;67.05;100709.75;5104314;28;20206;-64
2022/09/19 03:34:16;;;;;;;9.10;1.10;;;;;;;13.00;66.96;100709.75;5104270;28;20212;-65
2022/09/19 03:36:44;;;;;;;7.20;1.20;;;;;;;13.04;66.90;100716.41;5115880;27;20369;-65
2022/09/19 03:39:12;;;;;;;7.43;0.80;;;;;;;13.02;66.94;100713.06;5125457;27;20292;-65
2022/09/19 03:41:39;;;;;;;4.73;1.00;;;;;;;12.99;67.22;100720.53;5122967;27;20252;-65
2022/09/19 03:44:07;;;;;;;3.23;0.63;;;;;;;12.98;67.34;100725.03;5126447;27;20201;-65
2022/09/19 03:46:35;;;;;;;13.77;2.00;;;;;;;12.95;67.43;100725.34;5126873;27;20221;-65
2022/09/19 03:49:03;;;;;;;10.07;0.97;;;;;;;12.98;67.37;100727.69;5127201;27;20671;-65
2022/09/19 03:51:33;;;;;;;6.83;1.07;;;;;;;12.99;67.08;100734.69;5127270;27;21992;-65
2022/09/19 03:54:01;;;;;;;7.07;0.97;;;;;;;13.00;67.14;100741.69;5125818;27;20220;-65
2022/09/19 03:56:29;;;;;;;4.77;1.00;;;;;;;13.05;66.97;100742.03;5118643;27;20293;-65
2022/09/19 03:58:57;;;;;;;5.33;1.00;;;;;;;13.00;66.97;100741.69;5127212;27;20561;-65
2022/09/19 04:01:24;;;;;;;5.07;0.90;;;;;;;13.02;67.27;100738.84;5123308;27;20210;-64
2022/09/19 04:03:52;;;;;;;6.00;1.20;;;;;;;13.06;67.35;100746.38;5127679;27;20201;-64
2022/09/19 04:06:20;;;;;;;4.07;0.83;;;;;;;13.07;67.53;100750.72;5121966;27;20221;-65
2022/09/19 04:08:49;;;;;;;4.83;0.83;;;;;;;13.05;67.65;100751.84;5124399;27;20213;-65
2022/09/19 04:11:16;;;;;;;8.30;0.83;;;;;;;13.05;67.85;100757.19;5122496;27;20217;-65
2022/09/19 04:13:44;;;;;;;6.83;0.87;;;;;;;13.03;67.70;100760.00;5122494;27;20295;-65
2022/09/19 04:16:12;;;;;;;11.43;1.20;;;;;;;13.05;67.40;100760.66;5123515;27;20273;-65
2022/09/19 04:18:45;;;;;;;9.57;1.30;;;;;;;12.99;67.15;100757.81;5117921;27;20226;-66
2022/09/19 04:21:13;;;;;;;5.07;1.00;;;;;;;12.96;67.20;100761.63;5121568;27;20269;-65
2022/09/19 04:23:41;;;;;;;5.20;1.00;;;;;;;12.95;67.58;100767.91;5122143;27;20869;-65
2022/09/19 04:26:10;;;;;;;5.17;0.83;;;;;;;12.92;67.95;100762.94;5122488;27;20326;-65
2022/09/19 04:28:39;;;;;;;7.83;1.50;;;;;;;12.89;67.88;100767.72;5122359;27;20208;-65
2022/09/19 04:31:08;;;;;;;4.93;1.30;;;;;;;12.86;67.99;100763.53;5124339;27;20210;-65
2022/09/19 04:33:37;;;;;;;4.50;1.10;;;;;;;12.82;68.12;100770.19;5120771;27;20563;-65
2022/09/19 04:36:08;;;;;;;5.77;1.17;;;;;;;12.80;68.52;100774.81;5126773;27;20234;-65
2022/09/19 04:38:36;;;;;;;10.03;1.20;;;;;;;12.80;68.31;100780.97;5125454;27;20865;-65
2022/09/19 04:41:04;;;;;;;4.47;1.30;;;;;;;12.79;68.50;100776.63;5125985;27;20253;-64
2022/09/19 04:43:34;;;;;;;5.53;1.30;;;;;;;12.78;68.78;100774.13;5126466;27;20202;-64
2022/09/19 04:46:01;;;;;;;10.97;1.30;;;;;;;12.82;68.93;100772.84;5122812;27;20226;-64
2022/09/19 04:48:30;;;;;;;9.13;1.30;;;;;;;12.84;68.86;100781.47;5124460;27;20264;-64
2022/09/19 04:50:57;;;;;;;6.57;1.40;;;;;;;12.85;68.72;100785.81;5121775;27;20247;-64
2022/09/19 04:53:30;;;;;;;7.43;1.03;;;;;;;12.89;68.49;100779.19;5120367;27;20595;-65
2022/09/19 04:55:58;;;;;;;6.47;1.10;;;;;;;12.93;68.57;100788.53;5123358;27;20194;-64
2022/09/19 04:58:26;;;;;;;4.73;1.00;;;;;;;12.96;68.27;100793.56;5122160;27;20209;-64
2022/09/19 05:00:55;;;;;;;7.17;1.30;;;;;;;12.98;68.21;100796.06;5118787;27;20225;-65
2022/09/19 05:03:26;;;;;;;6.13;1.50;;;;;;;12.97;68.49;100803.22;5122718;27;20198;-64
2022/09/19 05:05:55;;;;;;;6.70;1.40;;;;;;;13.00;68.33;100797.59;5120589;27;20325;-64
2022/09/19 05:08:26;;;;;;;7.90;1.20;;;;;;;12.98;68.58;100793.41;5122409;27;20201;-64
2022/09/19 05:10:57;;;;;;;7.23;1.10;;;;;;;12.97;68.59;100799.72;5122395;27;20203;-64
2022/09/19 05:13:27;;;;;;;7.30;1.40;;;;;;;13.00;68.39;100813.56;5124342;27;20213;-64
2022/09/19 05:15:57;;;;;;;7.97;1.40;;;;;;;13.04;68.25;100809.59;5119184;27;20209;-64
2022/09/19 05:18:25;;;;;;;11.10;1.40;;;;;;;13.08;68.01;100813.63;5123578;27;20641;-65
2022/09/19 05:20:54;;;;;;;6.60;1.33;;;;;;;13.08;68.05;100813.63;5128431;27;20204;-64
2022/09/19 05:23:23;;;;;;;6.97;1.70;;;;;;;13.09;68.18;100823.28;5130492;27;20203;-64
2022/09/19 05:25:53;;;;;;;8.27;1.20;;;;;;;13.08;68.28;100818.94;5128522;27;20305;-65
2022/09/19 05:28:21;;;;;;;7.40;1.27;;;;;;;13.10;68.07;100811.66;5122035;27;20209;-66
2022/09/19 05:30:55;;;;;;;5.80;1.00;;;;;;;13.10;68.36;100827.63;5119656;27;20206;-65
2022/09/19 05:33:26;;;;;;;12.63;1.50;;;;;;;13.10;68.36;100821.47;5122003;27;20215;-65
2022/09/19 05:35:55;;;;;;;9.50;1.63;;;;;;;13.11;68.40;100825.75;5118532;27;20299;-66
2022/09/19 05:38:23;;;;;;;11.30;1.50;;;;;;;13.15;68.47;100825.34;5124626;27;20730;-66
2022/09/19 05:40:52;;;;;;;6.77;1.13;;;;;;;13.16;68.52;100832.34;5118718;27;20670;-65
2022/09/19 05:43:20;;;;;;;8.00;1.50;;;;;;;13.18;68.77;100835.69;5119874;27;20220;-64
2022/09/19 05:45:48;;;;;;;9.93;1.40;;;;;;;13.20;68.60;100843.50;5125636;27;20205;-65
2022/09/19 05:48:16;;;;;;;6.97;1.60;;;;;;;13.23;68.43;100845.03;5131529;27;20215;-65
2022/09/19 05:50:46;;;;;;;7.87;1.87;;;;;;;13.22;68.38;100843.34;5129661;27;20276;-65
2022/09/19 05:56:01;;;;;;;7.13;1.33;;;;;;;13.31;68.07;100858.38;5123536;27;20205;-65
2022/09/19 05:58:29;;;;;;;11.97;1.43;;;;;;;13.32;68.00;100852.06;5133431;27;20275;-65
2022/09/19 06:00:57;;;;;;;9.03;1.40;;;;;;;13.31;68.47;100859.22;5121559;27;20683;-65
2022/09/19 06:03:25;;;;;;;8.73;1.40;;;;;;;13.34;68.32;100855.44;5122133;27;20213;-65
2022/09/19 06:05:55;;;;;;;10.87;1.90;;;;;;;13.35;68.31;100863.25;5121085;27;20303;-64
2022/09/19 06:08:23;;;;;;;5.90;1.37;;;;;;;13.37;68.37;100863.91;5119778;27;20600;-66
2022/09/19 06:10:51;;;;;;;8.07;1.73;;;;;;;13.41;68.05;100864.44;5120328;27;20250;-65
2022/09/19 06:13:21;;;;;;;9.50;1.47;;;;;;;13.43;67.97;100873.13;5119270;27;20250;-64
2022/09/19 06:15:49;;;;;;;6.83;1.10;;;;;;;13.41;67.95;100864.44;5120322;27;20213;-64
2022/09/19 06:18:17;;;;;;;11.63;1.43;;;;;;;13.36;67.66;100869.44;5126925;27;20614;-64
2022/09/19 06:20:46;;;;;;;6.33;1.30;;;;;;;13.39;67.82;100871.75;5123608;27;20211;-64
2022/09/19 06:23:15;;;;;;;8.10;1.40;;;;;;;13.36;67.59;100878.25;5123937;27;20200;-65
2022/09/19 06:25:42;;;;;;;9.63;1.80;;;;;;;13.44;67.18;100880.13;5126312;27;20602;-64
2022/09/19 06:28:12;;;;;;;5.33;1.30;;;;;;;13.44;67.08;100888.13;5120056;27;20789;-64
2022/09/19 06:30:40;;;;;;;5.90;1.40;;;;;;;13.52;67.17;100880.19;5122448;27;20202;-65
2022/09/19 06:33:07;;;;;;;7.77;1.20;;;;;;;13.59;66.84;100883.06;5120417;27;20234;-66
2022/09/19 06:35:35;;;;;;;8.37;1.60;;;;;;;13.66;66.61;100886.75;5117023;27;20212;-64
2022/09/19 06:38:08;;;;;;;7.28;1.63;;;;;;;13.72;66.72;100883.47;5118726;27;20439;-64
2022/09/19 06:40:38;;;;;;;8.50;1.60;;;;;;;13.72;67.27;100886.94;5116777;27;20205;-63
2022/09/19 06:43:07;;;;;;;13.27;1.70;;;;;;;13.84;67.46;100895.50;5117728;27;20225;-64
2022/09/19 06:45:38;;;;;;;13.27;1.80;;;;;;;13.95;66.85;100897.91;5116038;27;20428;-64
2022/09/19 06:48:07;;;;;;;5.87;1.30;;;;;;;14.01;66.74;100897.25;5120770;28;20224;-63
2022/09/19 06:50:35;;;;;;;7.13;1.63;;;;;;;14.01;66.67;100897.25;5119246;27;20203;-64
2022/09/19 06:53:03;;;;;;;5.13;1.10;;;;;;;14.04;66.12;100906.78;5117521;27;21117;-65
2022/09/19 06:55:30;;;;;;;10.40;1.50;;;;;;;14.05;66.10;100905.78;5126427;27;20209;-64
2022/09/19 06:58:02;;;;;;;10.30;2.10;;;;;;;14.08;65.98;100908.13;5122337;27;20213;-64
2022/09/19 07:00:32;;;;;;;9.00;2.03;;;;;;;14.12;65.85;100914.81;5124824;27;20212;-65
2022/09/19 07:03:02;;;;;;;9.03;1.73;;;;;;;14.10;66.98;100916.78;5129806;27;20212;-64
2022/09/19 07:05:32;;;;;;;10.07;2.10;;;;;;;14.15;66.70;100930.50;5125053;27;20554;-64
2022/09/19 07:08:01;;;;;;;12.20;2.17;;;;;;;14.18;66.36;100930.16;5127978;27;20707;-65
2022/09/19 07:10:29;;;;;;;8.90;1.73;;;;;;;14.22;66.63;100928.88;5126797;27;20249;-65
2022/09/19 07:13:01;;;;;;;9.33;1.40;;;;;;;14.29;66.82;100929.88;5131340;27;20212;-66
2022/09/19 07:15:31;;;;;;;9.53;1.67;;;;;;;14.41;66.42;100931.31;5132084;27;20259;-66
2022/09/19 07:17:58;;;;;;;8.80;1.80;;;;;;;14.52;65.90;100939.00;5123824;27;20201;-66
2022/09/19 07:20:27;;;;;;;9.70;1.60;;;;;;;14.66;65.42;100935.72;5127296;27;20656;-65
2022/09/19 07:23:00;;;;;;;4.90;1.60;;;;;;;14.77;65.01;100931.91;5136190;27;20231;-66
2022/09/19 07:25:28;;;;;;;7.17;1.73;;;;;;;14.80;64.90;100936.06;5133070;27;20797;-64
2022/09/19 07:27:57;;;;;;;10.83;1.53;;;;;;;14.81;65.04;100933.22;5133761;27;20233;-66
2022/09/19 07:30:32;;;;;;;11.37;1.60;;;;;;;14.83;64.71;100939.25;5128948;27;20197;-66
2022/09/19 07:33:02;;;;;;;9.03;1.10;;;;;;;14.84;64.41;100929.41;5128875;27;20273;-65
2022/09/19 07:35:33;;;;;;;14.83;1.90;;;;;;;14.91;64.46;100927.75;5133174;27;20269;-65
2022/09/19 07:38:03;;;;;;;8.30;2.23;;;;;;;14.92;64.82;100945.44;5130944;27;20198;-65
2022/09/19 07:40:32;;;;;;;11.23;2.00;;;;;;;14.99;65.29;100941.94;5130018;27;20698;-65
2022/09/19 07:43:01;;;;;;;7.67;1.70;;;;;;;15.04;63.94;100949.44;5137636;27;20201;-65
2022/09/19 07:45:30;;;;;;;7.00;1.47;;;;;;;15.11;64.16;100950.47;5133805;27;20293;-65
2022/09/19 07:48:04;;;;;;;11.00;1.83;;;;;;;15.15;64.61;100957.13;5126531;27;20221;-65
2022/09/19 07:50:34;;;;;;;9.43;1.70;;;;;;;15.23;63.60;100965.16;5128629;27;20269;-65
2022/09/19 07:53:04;;;;;;;5.30;1.00;;;;;;;15.24;63.14;100963.31;5125342;27;20589;-65
2022/09/19 07:55:33;;;;;;;9.63;2.17;;;;;;;15.23;63.13;100969.66;5128496;27;20216;-65
2022/09/19 07:58:02;;;;;;;6.33;1.40;;;;;;;15.22;63.23;100962.66;5128201;27;20205;-63
2022/09/19 08:00:29;;;;;;;19.97;2.23;;;;;;;15.18;64.78;100967.50;5124420;27;20206;-63
2022/09/19 08:02:58;;;;;;;5.63;1.37;;;;;;;15.32;64.55;100960.66;5126382;27;20217;-67
2022/09/19 08:05:30;;;;;;;5.97;1.20;;;;;;;15.41;62.88;100975.69;5123290;27;20216;-66
2022/09/19 08:07:58;;;;;;;4.57;1.10;;;;;;;15.43;63.83;100968.34;5128494;27;20301;-67
2022/09/19 08:10:26;;;;;;;12.43;2.17;;;;;;;15.58;62.52;100979.22;5126453;27;20206;-66
2022/09/19 08:12:59;;;;;;;6.43;1.90;;;;;;;15.63;61.67;100980.41;5126181;27;20259;-68
2022/09/19 08:15:27;;;;;;;6.37;1.00;;;;;;;15.66;61.55;100985.38;5127865;27;20205;-66
2022/09/19 08:17:57;;;;;;;5.03;1.33;;;;;;;15.71;61.37;100990.25;5122406;27;20240;-65
2022/09/19 08:20:25;;;;;;;7.07;1.30;;;;;;;15.66;61.74;100982.72;5123475;27;20209;-65
2022/09/19 08:22:57;;;;;;;7.07;1.53;;;;;;;15.64;61.70;100983.91;5129790;27;20207;-65
2022/09/19 08:25:25;;;;;;;3.93;1.20;;;;;;;15.67;61.46;100978.19;5125341;27;20684;-64
2022/09/19 08:27:55;;;;;;;7.37;1.43;;;;;;;15.66;61.58;100981.88;5123768;27;20229;-66
2022/09/19 08:30:24;;;;;;;11.20;1.50;;;;;;;15.66;61.76;100981.88;5199620;22;20365;31
2022/09/19 08:32:52;;;;;;;8.47;1.63;;;;;;;16.02;61.32;100977.81;5030282;28;20224;-67
2022/09/19 08:35:21;;;;;;;9.40;1.83;;;;;;;16.29;60.51;100984.59;5038876;28;20263;-66
2022/09/19 08:37:54;;;;;;;4.57;1.43;;;;;;;16.27;59.37;100972.41;5037576;28;20688;-64
2022/09/19 08:40:26;;;;;;;3.43;1.03;;;;;;;16.40;59.01;100986.91;5041996;28;20204;-65
2022/09/19 08:43:06;;;;;;;4.80;1.10;;;;;;;16.65;58.75;100981.44;5046124;28;20218;-67
2022/09/19 08:45:44;;;;;;;3.50;1.40;;;;;;;17.82;55.71;100989.16;5049669;28;20250;-67
2022/09/19 08:48:18;;;;;;;4.40;1.00;;;;;;;18.03;54.19;100981.22;5041541;28;20223;-68
2022/09/19 08:50:54;;;;;;;10.17;1.07;;;;;;;18.77;53.53;100985.56;5036902;28;20212;-62
2022/09/19 08:53:27;;;;;;;8.40;1.50;;;;;;;18.74;52.29;100996.66;5042343;28;20740;-68
2022/09/19 08:56:00;;;;;;;7.83;1.97;;;;;;;18.25;52.94;101000.97;5046510;28;20230;-65
2022/09/19 08:58:30;;;;;;;5.43;0.90;;;;;;;17.81;53.99;101006.28;5043983;28;20335;-65
2022/09/19 09:01:00;;;;;;;4.83;1.30;;;;;;;17.33;55.42;101002.94;5043316;28;20208;-66
2022/09/19 09:03:34;;;;;;;6.73;1.43;;;;;;;16.96;56.46;101002.91;5048929;28;20208;-65
2022/09/19 09:06:16;;;;;;;11.27;1.53;;;;;;;16.69;57.43;101009.56;5049677;28;20608;-66
2022/09/19 09:08:55;;;;;;;8.00;1.20;;;;;;;16.52;58.41;101008.78;5049770;28;20280;-66
2022/09/19 09:11:32;;;;;;;10.17;1.70;;;;;;;16.47;59.08;101005.75;5050793;28;20204;-66
2022/09/19 09:14:11;;;;;;;6.27;1.50;;;;;;;16.44;58.97;101008.81;5049901;28;20222;-65
2022/09/19 09:16:57;;;;;;;5.23;1.43;;;;;;;16.42;58.97;101011.66;5050534;28;20214;-65
2022/09/19 09:19:50;;;;;;;7.33;1.57;;;;;;;16.89;58.48;101003.56;5049664;28;20208;-66
2022/09/19 09:22:25;;;;;;;8.53;1.80;;;;;;;17.13;58.11;101013.34;5048626;28;20692;-66
2022/09/19 09:25:00;;;;;;;6.90;1.30;;;;;;;17.25;57.37;101003.00;5045365;28;20572;-65
2022/09/19 09:27:35;;;;;;;6.57;1.27;;;;;;;17.12;57.44;101008.16;5044330;28;20887;-63
2022/09/19 09:30:16;;;;;;;6.37;1.30;;;;;;;16.99;57.27;101014.06;5044125;28;20638;-64
2022/09/19 09:32:49;;;;;;;5.73;1.30;;;;;;;16.80;57.58;101015.34;5021115;28;20252;-64
2022/09/19 09:35:29;;;;;;;4.97;1.10;;;;;;;16.68;57.93;101011.41;5021327;28;21981;-65
2022/09/19 09:38:03;;;;;;;5.87;1.30;;;;;;;16.58;58.73;101021.44;5021826;28;20209;-64
2022/09/19 09:43:31;;;;;;;5.80;1.50;;;;;;;16.66;58.84;101008.06;5022727;28;20209;-64
2022/09/19 09:46:03;;;;;;;8.07;1.93;;;;;;;16.61;58.35;101010.44;5021179;28;20208;-66
2022/09/19 09:48:34;;;;;;;7.30;1.37;;;;;;;16.52;58.85;101006.09;5021841;28;20240;-67
2022/09/19 09:51:18;;;;;;;10.00;1.43;;;;;;;16.47;59.19;101003.09;5022720;28;20217;-66
2022/09/19 09:57:05;;;;;;;6.77;1.33;;;;;;;16.31;59.20;100995.13;5023481;28;20204;-66
2022/09/19 10:05:33;;;;;;;7.00;1.10;;;;;;;16.44;60.14;100996.25;5025638;28;20209;-65
2022/09/19 10:08:14;;;;;;;6.87;1.43;;;;;;;16.63;59.36;101003.03;5028951;28;20276;-66
2022/09/19 10:10:43;;;;;;;8.33;1.53;;;;;;;16.94;58.83;100992.34;5024169;28;20223;-65
2022/09/19 10:13:25;;;;;;;4.40;1.40;;;;;;;17.05;58.32;100991.13;5025194;28;20241;-66
2022/09/19 10:15:57;;;;;;;6.10;1.47;;;;;;;17.05;58.18;100993.78;5023151;28;20212;-67
2022/09/19 10:18:29;;;;;;;7.20;1.43;;;;;;;17.01;57.81;100993.31;5024775;28;20209;-66
2022/09/19 10:20:57;;;;;;;3.93;1.10;;;;;;;16.95;58.18;100996.69;5025914;28;20213;-66
2022/09/19 10:23:26;;;;;;;5.90;1.60;;;;;;;16.93;58.96;100991.50;5024199;28;20213;-66
2022/09/19 10:26:01;;;;;;;4.40;1.00;;;;;;;16.93;60.58;100988.84;5022710;28;20223;-66
2022/09/19 10:28:32;;;;;;;6.10;1.07;;;;;;;16.95;61.47;100987.81;5023205;28;20219;-65
2022/09/19 10:31:04;;;;;;;9.87;1.67;;;;;;;16.91;60.52;100990.84;5018768;28;20244;-67
2022/09/19 10:33:40;;;;;;;5.77;1.10;;;;;;;16.92;58.95;100991.69;5022219;28;20196;-67
2022/09/19 10:36:19;;;;;;;4.00;1.03;;;;;;;16.90;59.18;100999.91;5024040;28;20241;-70
2022/09/19 10:38:50;;;;;;;6.67;1.30;;;;;;;16.87;59.66;101002.09;5024305;28;20255;-71
2022/09/19 10:41:22;;;;;;;3.47;0.90;;;;;;;16.84;58.71;101003.28;5006466;28;20296;-72
2022/09/19 10:43:52;;;;;;;4.37;0.90;;;;;;;16.78;58.67;101003.16;5024500;28;20208;-70
2022/09/19 10:46:25;;;;;;;3.67;0.97;;;;;;;16.73;58.89;101003.66;5028419;28;20231;-69
2022/09/19 10:48:56;;;;;;;8.50;1.57;;;;;;;16.71;59.52;100994.97;5021530;28;20238;-69
2022/09/19 10:51:32;;;;;;;9.80;1.70;;;;;;;16.71;59.59;101002.19;5019058;28;20741;-66
2022/09/19 10:54:01;;;;;;;4.47;1.10;;;;;;;16.72;59.33;100998.47;5020054;28;20212;-66
2022/09/19 10:56:34;;;;;;;6.00;1.27;;;;;;;16.76;59.36;101003.31;5016536;28;20217;-69
2022/09/19 10:59:06;;;;;;;5.87;1.10;;;;;;;16.84;58.79;101003.28;5021031;28;20204;-68
2022/09/19 11:01:35;;;;;;;9.40;1.40;;;;;;;16.96;58.47;100998.38;5018739;28;20673;-69
2022/09/19 11:04:06;;;;;;;7.73;1.33;;;;;;;17.05;58.71;100996.47;5022403;28;20851;-69
2022/09/19 11:06:34;;;;;;;7.83;1.50;;;;;;;17.11;57.96;101001.13;5017347;28;20251;-68
2022/09/19 11:09:24;;;;;;;7.50;1.40;;;;;;;17.10;57.74;100994.09;5018252;28;20237;-69
2022/09/19 11:11:51;;;;;;;8.77;1.20;;;;;;;17.07;57.56;100994.44;5017638;28;20216;-70
2022/09/19 11:14:29;;;;;;;4.40;1.43;;;;;;;17.07;57.19;100989.91;5016286;28;20717;-68
2022/09/19 11:17:27;;;;;;;9.37;1.30;;;;;;;17.16;57.76;100996.88;5018170;28;20212;-67
2022/09/19 11:20:17;;;;;;;6.33;1.50;;;;;;;17.42;57.52;100988.47;5019740;28;20209;-68
2022/09/19 11:23:07;;;;;;;7.57;1.60;;;;;;;17.52;57.28;100983.69;5017751;28;20210;-69
2022/09/19 11:25:42;;;;;;;12.53;2.20;;;;;;;17.67;56.03;100984.63;5018728;28;20877;-68
2022/09/19 11:28:23;;;;;;;4.97;1.43;;;;;;;17.70;55.57;100985.25;5019446;28;20318;-67
2022/09/19 11:31:02;;;;;;;6.60;1.27;;;;;;;18.10;55.79;100978.66;5023630;28;20244;-69
2022/09/19 11:33:47;;;;;;;7.00;1.93;;;;;;;18.45;54.02;100982.44;5018688;28;20800;-69
2022/09/19 11:36:46;;;;;;;3.67;1.10;;;;;;;19.21;51.69;100981.06;5022532;28;20236;-67
2022/09/19 11:39:17;;;;;;;10.20;1.70;;;;;;;19.70;50.07;100967.66;5023736;28;20673;-69
2022/09/19 11:42:18;;;;;;;5.13;1.10;;;;;;;19.62;49.94;100974.00;5029022;28;20273;-69
2022/09/19 11:45:01;;;;;;;6.47;1.20;;;;;;;19.22;49.74;100971.97;5025021;28;20212;-68
2022/09/19 11:47:52;;;;;;;3.40;1.10;;;;;;;18.82;50.69;100968.88;5020218;28;20208;-66
2022/09/19 11:50:39;;;;;;;6.47;1.43;;;;;;;18.48;51.97;100963.25;5027030;28;20251;-66
2022/09/19 11:53:36;;;;;;;6.23;1.93;;;;;;;18.17;52.75;100955.41;5029624;28;20213;-66
2022/09/19 11:56:16;;;;;;;9.50;1.47;;;;;;;18.01;53.17;100959.13;5005294;28;20201;-66
2022/09/19 11:58:53;;;;;;;5.70;1.30;;;;;;;17.95;54.06;100952.63;5031039;28;20204;-66
2022/09/19 12:01:37;;;;;;;9.67;1.53;;;;;;;17.94;54.44;100972.44;5025978;28;20209;-66
2022/09/19 12:04:26;;;;;;;7.23;1.60;;;;;;;17.87;54.92;100981.41;5024728;28;20204;-66
2022/09/19 12:07:10;;;;;;;7.43;1.50;;;;;;;17.68;55.88;100988.09;5023499;28;20599;-66